Terminal Aerodrome Forecast
Issued by NWS Albany, NY

Home | Current Version | Previous Version | Text Only | Print | Product List | Glossary On
Versions: 1 2 3 4 5 6 7 8 9 10 11 12 13 14 15 16 17
525
FTUS41 KALY 261014 AAB
TAFGFL
TAF AMD
KGFL 261014Z 2610/2706 00000KT P6SM FEW050
     FM261200 22005KT P6SM SCT050
     FM261500 22007KT P6SM VCSH BKN050
     FM270000 00000KT P6SM BKN070 PROB30 2700/2705 4SM -SHRA BR
      OVC040=

USA.gov is the U.S. government's official web portal to all federal, state and local government web resources and services.